createdAt,value
2019-04-20T00:02:25.395Z,101631.91
2019-04-20T00:05:23.552Z,101628.00
2019-04-20T00:08:08.885Z,101627.03
2019-04-20T00:10:58.050Z,101624.41
2019-04-20T00:13:40.658Z,101624.41
2019-04-20T00:16:02.005Z,101621.58
2019-04-20T00:18:34.711Z,101619.27
2019-04-20T00:21:19.218Z,101619.27
2019-04-20T00:23:51.812Z,101609.91
2019-04-20T00:27:02.854Z,101616.84
2019-04-20T00:29:17.653Z,101618.83
2019-04-20T00:31:45.840Z,101604.66
2019-04-20T00:34:09.147Z,101604.66
2019-04-20T00:36:30.844Z,101613.88
2019-04-20T00:39:03.851Z,101603.05
2019-04-20T00:41:29.847Z,101604.86
2019-04-20T00:44:04.758Z,101604.86
2019-04-20T00:46:39.655Z,101605.80
2019-04-20T00:49:11.027Z,101611.39
2019-04-20T00:51:46.654Z,101607.28
2019-04-20T00:54:00.887Z,101610.42
2019-04-20T00:56:30.981Z,101605.50
2019-04-20T00:59:13.081Z,101604.80
2019-04-20T01:01:47.650Z,101604.66
2019-04-20T01:04:21.948Z,101608.33
2019-04-20T01:07:06.232Z,101608.20
2019-04-20T01:09:41.304Z,101603.02
2019-04-20T01:12:17.282Z,101606.45
2019-04-20T01:14:48.681Z,101606.84
2019-04-20T01:17:13.383Z,101608.90
2019-04-20T01:19:42.281Z,101603.90
2019-04-20T01:22:15.986Z,101603.90
2019-04-20T01:24:46.263Z,101609.79
2019-04-20T01:27:31.139Z,101608.58
2019-04-20T01:29:48.418Z,101611.84
2019-04-20T01:32:24.706Z,101614.09
2019-04-20T01:34:55.301Z,101614.09
2019-04-20T01:37:26.095Z,101610.11
2019-04-20T01:39:50.235Z,101613.67
2019-04-20T01:42:15.108Z,101609.22
2019-04-20T01:44:48.562Z,101616.06
2019-04-20T01:47:15.063Z,101614.70
2019-04-20T01:49:47.714Z,101617.78
2019-04-20T01:52:20.067Z,101617.78
2019-04-20T01:55:08.715Z,101614.84
2019-04-20T01:57:54.788Z,101611.85
2019-04-20T02:00:32.723Z,101617.13
2019-04-20T02:03:15.278Z,101618.19
2019-04-20T02:05:53.130Z,101621.94
2019-04-20T02:08:20.322Z,101624.70
2019-04-20T02:10:51.843Z,101619.58
2019-04-20T02:13:15.428Z,101623.46
2019-04-20T02:15:48.560Z,101620.17
2019-04-20T02:18:26.990Z,101630.73
2019-04-20T02:21:04.862Z,101622.75
2019-04-20T02:23:29.280Z,101620.66
2019-04-20T02:25:45.955Z,101627.05
2019-04-20T02:28:36.201Z,101629.57
2019-04-20T02:31:24.799Z,101629.57
2019-04-20T02:44:23.090Z,101627.13
2019-04-20T02:46:33.700Z,101625.48
2019-04-20T02:49:18.176Z,101625.83
2019-04-20T02:56:43.204Z,101626.77
2019-04-20T02:59:25.113Z,101635.23
2019-04-20T03:01:36.004Z,101628.71
2019-04-20T03:03:51.033Z,101626.66
2019-04-20T03:06:31.372Z,101629.19
2019-04-20T03:09:08.995Z,101627.92
2019-04-20T03:11:49.760Z,101627.34
2019-04-20T03:14:03.273Z,101626.56
2019-04-20T03:16:35.664Z,101618.36
2019-04-20T03:19:03.192Z,101622.35
2019-04-20T03:21:47.633Z,101622.63
2019-04-20T03:24:20.419Z,101621.17
2019-04-20T03:26:40.185Z,101619.17
2019-04-20T03:29:37.263Z,101617.48
2019-04-20T03:32:38.322Z,101620.97
2019-04-20T03:37:21.748Z,101621.29
2019-04-20T03:39:40.457Z,101622.64
2019-04-20T03:41:56.667Z,101622.64
2019-04-20T03:44:26.487Z,101619.20
2019-04-20T03:46:59.685Z,101620.95
2019-04-20T03:49:48.228Z,101624.89
2019-04-20T03:52:27.476Z,101621.59
2019-04-20T03:55:16.548Z,101621.77
2019-04-20T03:57:59.510Z,101627.14
2019-04-20T04:00:43.330Z,101627.20
2019-04-20T04:03:29.342Z,101630.64
2019-04-20T04:05:50.726Z,101623.86
2019-04-20T04:08:17.060Z,101624.27
2019-04-20T04:10:54.784Z,101624.41
2019-04-20T04:13:11.848Z,101626.11
2019-04-20T04:15:47.909Z,101624.78
2019-04-20T04:18:23.048Z,101632.38
2019-04-20T04:20:51.278Z,101632.57
2019-04-20T04:23:35.725Z,101624.96
2019-04-20T04:26:05.865Z,101622.01
2019-04-20T04:28:31.215Z,101627.80
2019-04-20T04:31:07.896Z,101631.52
2019-04-20T04:36:00.547Z,101632.64
2019-04-20T04:38:43.526Z,101634.70
2019-04-20T04:41:17.036Z,101645.41
2019-04-20T04:43:37.222Z,101639.59
2019-04-20T04:45:48.892Z,101642.44
2019-04-20T04:48:23.783Z,101643.30
2019-04-20T04:50:57.417Z,101651.03
2019-04-20T04:53:31.304Z,101648.03
2019-04-20T04:55:56.495Z,101647.14
2019-04-20T04:58:19.627Z,101653.50
2019-04-20T05:00:49.331Z,101653.85
2019-04-20T05:03:33.675Z,101656.22
2019-04-20T05:06:25.018Z,101659.06
2019-04-20T05:08:45.288Z,101662.61
2019-04-20T05:11:09.270Z,101656.98
2019-04-20T05:13:47.938Z,101658.40
2019-04-20T05:16:33.694Z,101664.84
2019-04-20T05:19:07.718Z,101665.92
2019-04-20T05:22:05.414Z,101665.27
2019-04-20T05:24:32.249Z,101673.45
2019-04-20T05:27:07.246Z,101672.11
2019-04-20T05:29:24.378Z,101680.03
2019-04-20T05:31:54.346Z,101681.83
2019-04-20T05:34:40.348Z,101682.14
2019-04-20T05:37:17.609Z,101677.94
2019-04-20T05:39:39.886Z,101685.77
2019-04-20T05:42:09.299Z,101680.75
2019-04-20T05:44:48.616Z,101684.54
2019-04-20T05:47:13.547Z,101684.05
2019-04-20T05:49:41.943Z,101689.83
2019-04-20T05:52:25.024Z,101694.48
2019-04-20T05:54:44.665Z,101687.70
2019-04-20T05:57:21.074Z,101691.89
2019-04-20T05:59:51.394Z,101689.57
2019-04-20T06:02:15.951Z,101691.77
2019-04-20T06:04:59.687Z,101691.72
2019-04-20T06:07:21.432Z,101692.53
2019-04-20T06:09:47.910Z,101691.45
2019-04-20T06:12:25.476Z,101694.80
2019-04-20T06:15:04.143Z,101698.48
2019-04-20T06:17:57.994Z,101698.36
2019-04-20T06:20:33.434Z,101701.66
2019-04-20T06:23:15.334Z,101691.05
2019-04-20T06:28:06.583Z,101698.88
2019-04-20T06:30:37.166Z,101701.47
2019-04-20T06:34:01.512Z,101700.72
2019-04-20T06:39:00.362Z,101700.89
2019-04-20T06:41:33.009Z,101705.52
2019-04-20T06:43:59.006Z,101707.92
2019-04-20T06:46:22.684Z,101701.28
2019-04-20T06:48:51.606Z,101705.01
2019-04-20T06:51:25.084Z,101705.01
2019-04-20T06:54:09.261Z,101700.73
2019-04-20T06:56:48.531Z,101707.84
2019-04-20T06:59:21.584Z,101707.84
2019-04-20T07:01:56.786Z,101712.23
2019-04-20T07:04:40.221Z,101701.77
2019-04-20T07:09:21.757Z,101711.83
2019-04-20T07:11:46.472Z,101710.83
2019-04-20T07:14:04.907Z,101710.56
2019-04-20T07:17:10.288Z,101713.23
2019-04-20T07:19:40.306Z,101712.80
2019-04-20T07:22:25.064Z,101712.80
2019-04-20T07:24:53.189Z,101711.95
2019-04-20T07:27:19.319Z,101718.02
2019-04-20T07:29:52.006Z,101718.02
2019-04-20T07:32:09.759Z,101705.86
2019-04-20T07:34:51.612Z,101715.34
2019-04-20T07:37:51.419Z,101726.84
2019-04-20T07:40:01.079Z,101726.84
2019-04-20T07:42:29.076Z,101723.52
2019-04-20T07:45:02.968Z,101723.52
2019-04-20T07:47:38.071Z,101716.80
2019-04-20T07:49:56.811Z,101718.57
2019-04-20T07:52:08.391Z,101712.98
2019-04-20T07:55:17.273Z,101714.59
2019-04-20T07:57:25.883Z,101714.59
2019-04-20T08:00:01.713Z,101717.19
2019-04-20T08:06:02.462Z,101715.43
2019-04-20T08:08:40.658Z,101719.03
2019-04-20T08:11:12.376Z,101718.11
2019-04-20T08:13:51.253Z,101725.50
2019-04-20T08:16:35.582Z,101725.50
2019-04-20T08:18:49.915Z,101722.74
2019-04-20T08:21:21.341Z,101707.05
2019-04-20T08:23:45.898Z,101721.08
2019-04-20T08:26:07.867Z,101721.08
2019-04-20T08:28:39.442Z,101703.17
2019-04-20T08:31:33.414Z,101719.45
2019-04-20T08:34:31.270Z,101719.45
2019-04-20T08:36:49.184Z,101707.02
2019-04-20T08:39:30.793Z,101703.55
2019-04-20T08:41:54.797Z,101703.55
2019-04-20T08:44:42.885Z,101703.55
2019-04-20T08:46:58.464Z,101706.23
2019-04-20T08:49:26.318Z,101706.30
2019-04-20T08:52:05.856Z,101698.79
2019-04-20T08:54:21.955Z,101697.57
2019-04-20T08:56:42.521Z,101700.95
2019-04-20T08:59:03.997Z,101700.38
2019-04-20T09:01:35.387Z,101700.38
2019-04-20T09:04:09.751Z,101696.16
2019-04-20T09:06:47.032Z,101689.25
2019-04-20T09:09:33.160Z,101691.41
2019-04-20T09:11:55.620Z,101693.73
2019-04-20T09:14:21.393Z,101687.75
2019-04-20T09:26:37.189Z,101676.69
2019-04-20T09:29:05.423Z,101674.17
2019-04-20T09:31:52.133Z,101672.58
2019-04-20T09:34:42.384Z,101677.43
2019-04-20T09:37:27.879Z,101676.50
2019-04-20T09:40:06.029Z,101676.50
2019-04-20T09:42:38.479Z,101673.03
2019-04-20T09:45:13.366Z,101673.16
2019-04-20T09:47:45.011Z,101662.22
2019-04-20T09:50:27.860Z,101667.14
2019-04-20T09:52:57.071Z,101661.84
2019-04-20T09:55:24.405Z,101665.28
2019-04-20T09:57:57.587Z,101662.05
2019-04-20T10:00:32.363Z,101659.45
2019-04-20T10:02:44.644Z,101658.69
2019-04-20T10:05:13.812Z,101659.66
2019-04-20T10:07:43.858Z,101652.62
2019-04-20T10:10:21.210Z,101652.45
2019-04-20T10:12:43.959Z,101650.17
2019-04-20T10:15:19.094Z,101644.98
2019-04-20T10:17:43.659Z,101644.28
2019-04-20T10:20:20.845Z,101639.35
2019-04-20T10:22:42.896Z,101639.78
2019-04-20T10:25:12.857Z,101638.58
2019-04-20T10:27:42.391Z,101638.46
2019-04-20T10:30:12.542Z,101636.94
2019-04-20T10:32:45.593Z,101634.27
2019-04-20T10:35:15.093Z,101634.20
2019-04-20T10:37:47.320Z,101631.07
2019-04-20T10:40:31.586Z,101628.78
2019-04-20T10:42:46.533Z,101626.03
2019-04-20T10:45:15.291Z,101623.83
2019-04-20T10:47:52.514Z,101623.74
2019-04-20T10:50:22.907Z,101621.27
2019-04-20T10:52:51.971Z,101613.40
2019-04-20T10:55:20.841Z,101619.65
2019-04-20T10:57:49.412Z,101615.33
2019-04-20T11:00:21.689Z,101609.80
2019-04-20T11:02:51.281Z,101605.99
2019-04-20T11:05:20.676Z,101613.41
2019-04-20T11:07:50.487Z,101606.91
2019-04-20T11:10:25.319Z,101607.38
2019-04-20T11:12:50.513Z,101604.07
2019-04-20T11:15:20.948Z,101600.33
2019-04-20T11:17:49.626Z,101595.65
2019-04-20T11:20:19.232Z,101597.59
2019-04-20T11:22:48.525Z,101595.20
2019-04-20T11:25:17.307Z,101592.06
2019-04-20T11:27:46.057Z,101586.40
2019-04-20T11:30:16.049Z,101584.51
2019-04-20T11:32:44.737Z,101584.30
2019-04-20T11:35:22.921Z,101572.48
2019-04-20T11:37:44.902Z,101583.27
2019-04-20T11:40:14.998Z,101577.80
2019-04-20T11:42:43.969Z,101565.18
2019-04-20T11:45:13.122Z,101567.19
2019-04-20T11:47:43.176Z,101561.42
2019-04-20T11:50:13.692Z,101567.38
2019-04-20T11:52:47.505Z,101553.91
2019-04-20T11:55:12.800Z,101555.87
2019-04-20T11:57:41.400Z,101552.50
2019-04-20T12:00:13.408Z,101553.35
2019-04-20T12:03:09.824Z,101545.56
2019-04-20T12:05:38.158Z,101543.97
2019-04-20T12:08:03.014Z,101543.45
2019-04-20T12:10:33.050Z,101537.30
2019-04-20T12:13:01.915Z,101529.60
2019-04-20T12:15:34.529Z,101531.31
2019-04-20T12:18:01.935Z,101530.12
2019-04-20T12:20:30.833Z,101526.41
2019-04-20T12:23:00.241Z,101521.63
2019-04-20T12:25:31.516Z,101522.95
2019-04-20T12:28:01.965Z,101517.91
2019-04-20T12:30:30.060Z,101515.48
2019-04-20T12:33:01.886Z,101511.41
2019-04-20T12:35:30.000Z,101508.14
2019-04-20T12:37:59.019Z,101502.16
2019-04-20T12:40:28.134Z,101498.81
2019-04-20T12:42:57.252Z,101494.83
2019-04-20T12:45:29.269Z,101500.70
2019-04-20T12:47:58.000Z,101496.00
2019-04-20T12:50:27.668Z,101487.34
2019-04-20T12:52:56.778Z,101493.17
2019-04-20T12:55:26.408Z,101487.44
2019-04-20T12:57:55.029Z,101489.70
2019-04-20T13:00:30.440Z,101476.56
2019-04-20T13:02:59.219Z,101480.46
2019-04-20T13:05:27.975Z,101480.52
2019-04-20T13:08:00.689Z,101482.19
2019-04-20T13:10:27.526Z,101472.08
2019-04-20T13:13:18.584Z,101469.81
2019-04-20T13:16:06.426Z,101458.98
2019-04-20T13:18:57.252Z,101457.75
2019-04-20T13:21:27.117Z,101461.05
2019-04-20T13:23:56.535Z,101456.38
2019-04-20T13:26:26.886Z,101451.95
2019-04-20T13:28:56.829Z,101444.13
2019-04-20T13:31:26.132Z,101441.80
2019-04-20T13:33:54.994Z,101447.98
2019-04-20T13:36:24.155Z,101439.23
2019-04-20T13:38:53.062Z,101435.66
2019-04-20T13:41:24.118Z,101438.45
2019-04-20T13:43:54.849Z,101436.26
2019-04-20T13:46:24.817Z,101432.12
2019-04-20T13:48:55.088Z,101433.23
2019-04-20T13:51:23.829Z,101431.86
2019-04-20T13:53:53.279Z,101423.28
2019-04-20T13:56:23.771Z,101417.59
2019-04-20T13:59:03.420Z,101410.55
2019-04-20T14:01:41.204Z,101412.55
2019-04-20T14:04:16.770Z,101403.52
2019-04-20T14:06:45.752Z,101398.63
2019-04-20T14:09:15.114Z,101395.34
2019-04-20T14:11:45.292Z,101385.75
2019-04-20T14:14:15.161Z,101383.05
2019-04-20T14:16:45.221Z,101377.30
2019-04-20T14:19:14.473Z,101374.31
2019-04-20T14:21:43.988Z,101372.72
2019-04-20T14:24:13.109Z,101369.97
2019-04-20T14:26:42.894Z,101373.55
2019-04-20T14:29:12.731Z,101373.23
2019-04-20T14:31:41.849Z,101371.27
2019-04-20T14:34:10.967Z,101368.29
2019-04-20T14:36:41.145Z,101364.27
2019-04-20T14:39:10.142Z,101359.53
2019-04-20T14:41:40.232Z,101352.69
2019-04-20T14:44:10.002Z,101346.73
2019-04-20T14:46:39.957Z,101349.73
2019-04-20T14:49:08.754Z,101347.26
2019-04-20T14:51:37.538Z,101338.77
2019-04-20T14:54:07.514Z,101339.88
2019-04-20T14:56:36.117Z,101338.97
2019-04-20T14:59:13.539Z,101337.72
2019-04-20T15:01:45.260Z,101333.08
2019-04-20T15:04:17.909Z,101324.32
2019-04-20T15:06:44.503Z,101323.75
2019-04-20T15:09:14.704Z,101321.83
2019-04-20T15:11:45.155Z,101317.17
2019-04-20T15:14:14.585Z,101311.41
2019-04-20T15:16:44.583Z,101314.14
2019-04-20T15:19:47.633Z,101314.16
2019-04-20T15:22:39.123Z,101312.50
2019-04-20T15:25:09.476Z,101313.61
2019-04-20T15:27:41.117Z,101302.63
2019-04-20T15:30:09.362Z,101308.37
2019-04-20T15:32:38.941Z,101302.55
2019-04-20T15:35:09.044Z,101303.42
2019-04-20T15:37:39.385Z,101297.44
2019-04-20T15:40:08.920Z,101296.31
2019-04-20T15:42:49.608Z,101297.97
2019-04-20T15:45:09.400Z,101295.48
2019-04-20T15:47:38.370Z,101293.33
2019-04-20T15:50:07.942Z,101296.61
2019-04-20T15:52:42.454Z,101282.88
2019-04-20T15:55:17.291Z,101288.92
2019-04-20T15:57:38.658Z,101291.95
2019-04-20T16:00:08.762Z,101282.61
2019-04-20T16:02:47.407Z,101294.39
2019-04-20T16:05:35.576Z,101279.55
2019-04-20T16:08:22.137Z,101283.64
2019-04-20T16:10:51.020Z,101276.78
2019-04-20T16:13:26.108Z,101276.75
2019-04-20T16:15:50.058Z,101271.02
2019-04-20T16:18:18.945Z,101280.31
2019-04-20T16:20:58.169Z,101273.20
2019-04-20T16:23:18.645Z,101275.97
2019-04-20T16:25:53.419Z,101270.72
2019-04-20T16:28:23.670Z,101265.23
2019-04-20T16:30:53.597Z,101268.28
2019-04-20T16:33:22.432Z,101260.87
2019-04-20T16:35:52.324Z,101263.04
2019-04-20T16:38:22.360Z,101261.93
2019-04-20T16:40:52.530Z,101260.02
2019-04-20T16:43:29.149Z,101255.62
2019-04-20T16:45:52.976Z,101256.18
2019-04-20T16:48:22.124Z,101246.91
2019-04-20T16:50:51.060Z,101248.77
2019-04-20T16:53:19.693Z,101249.88
2019-04-20T16:55:48.527Z,101245.78
2019-04-20T16:58:19.811Z,101245.23
2019-04-20T17:00:50.010Z,101241.10
2019-04-20T17:03:19.522Z,101238.33
2019-04-20T17:05:51.012Z,101237.02
2019-04-20T17:08:18.817Z,101241.94
2019-04-20T17:10:48.839Z,101235.08
2019-04-20T17:13:30.417Z,101228.23
2019-04-20T17:15:48.188Z,101227.38
2019-04-20T17:18:16.810Z,101226.57
2019-04-20T17:20:46.419Z,101227.13
2019-04-20T17:23:15.374Z,101221.06
2019-04-20T17:25:44.098Z,101223.22
2019-04-20T17:28:35.226Z,101225.70
2019-04-20T17:31:13.560Z,101227.60
2019-04-20T17:33:53.366Z,101228.59
2019-04-20T17:36:21.800Z,101226.64
2019-04-20T17:38:52.643Z,101229.91
2019-04-20T17:41:38.462Z,101217.05
2019-04-20T17:44:06.041Z,101216.17
2019-04-20T17:46:27.261Z,101224.86
2019-04-20T17:49:07.565Z,101215.59
2019-04-20T17:51:39.601Z,101222.08
2019-04-20T17:54:08.707Z,101224.28
2019-04-20T17:56:40.271Z,101225.84
2019-04-20T17:59:10.357Z,101225.97
2019-04-20T18:02:11.857Z,101230.92
2019-04-20T18:05:06.538Z,101230.28
2019-04-20T18:07:36.623Z,101231.30
2019-04-20T18:10:03.156Z,101229.31
2019-04-20T18:12:23.144Z,101230.20
2019-04-20T18:14:53.457Z,101227.35
2019-04-20T18:17:51.609Z,101229.43
2019-04-20T18:20:12.687Z,101228.69
2019-04-20T18:22:44.187Z,101229.70
2019-04-20T18:25:32.896Z,101231.06
2019-04-20T18:28:01.190Z,101239.36
2019-04-20T18:30:34.603Z,101236.33
2019-04-20T18:32:53.438Z,101236.28
2019-04-20T18:35:24.508Z,101244.20
2019-04-20T18:38:00.765Z,101240.25
2019-04-20T18:40:32.558Z,101240.44
2019-04-20T18:43:03.947Z,101242.65
2019-04-20T18:45:39.688Z,101250.48
2019-04-20T18:48:14.554Z,101244.68
2019-04-20T18:50:32.594Z,101248.55
2019-04-20T18:52:56.216Z,101246.61
2019-04-20T18:55:38.311Z,101250.04
2019-04-20T18:57:55.218Z,101253.06
2019-04-20T19:00:31.582Z,101255.17
2019-04-20T19:03:01.359Z,101260.17
2019-04-20T19:05:26.589Z,101255.45
2019-04-20T19:07:59.887Z,101255.61
2019-04-20T19:10:29.611Z,101265.36
2019-04-20T19:13:04.328Z,101259.58
2019-04-20T19:16:04.354Z,101263.94
2019-04-20T19:18:52.042Z,101263.66
2019-04-20T19:21:09.112Z,101262.32
2019-04-20T19:23:47.654Z,101264.63
2019-04-20T19:26:16.313Z,101267.66
2019-04-20T19:28:49.550Z,101267.95
2019-04-20T19:31:31.733Z,101268.50
2019-04-20T19:34:09.354Z,101275.84
2019-04-20T19:36:28.789Z,101266.84
2019-04-20T19:39:10.780Z,101263.42
2019-04-20T19:41:42.884Z,101272.47
2019-04-20T19:44:16.072Z,101273.13
2019-04-20T19:47:09.144Z,101278.88
2019-04-20T19:49:25.669Z,101279.94
2019-04-20T19:52:25.495Z,101275.24
2019-04-20T19:54:46.718Z,101281.40
2019-04-20T19:57:22.103Z,101278.81
2019-04-20T19:59:43.480Z,101278.44
2019-04-20T20:02:07.736Z,101288.02
2019-04-20T20:04:48.234Z,101286.45
2019-04-20T20:07:22.033Z,101283.20
2019-04-20T20:09:54.947Z,101285.63
2019-04-20T20:12:25.475Z,101286.95
2019-04-20T20:15:01.393Z,101287.13
2019-04-20T20:17:48.402Z,101298.18
2019-04-20T20:20:30.770Z,101299.36
2019-04-20T20:22:45.358Z,101306.50
2019-04-20T20:25:12.787Z,101311.27
2019-04-20T20:27:51.193Z,101308.37
2019-04-20T20:30:24.448Z,101304.74
2019-04-20T20:33:11.545Z,101303.84
2019-04-20T20:35:31.334Z,101305.44
2019-04-20T20:38:11.780Z,101300.94
2019-04-20T20:40:38.536Z,101301.86
2019-04-20T20:43:16.138Z,101302.00
2019-04-20T20:46:17.218Z,101305.64
2019-04-20T20:49:03.485Z,101303.92
2019-04-20T20:51:34.711Z,101303.61
2019-04-20T20:54:21.602Z,101311.63
2019-04-20T20:56:48.547Z,101313.26
2019-04-20T20:59:25.738Z,101305.89
2019-04-20T21:01:52.442Z,101309.95
2019-04-20T21:04:15.349Z,101312.45
2019-04-20T21:06:46.525Z,101312.25
2019-04-20T21:09:18.586Z,101307.81
2019-04-20T21:11:51.098Z,101312.02
2019-04-20T21:14:26.097Z,101306.31
2019-04-20T21:17:01.359Z,101313.75
2019-04-20T21:19:45.220Z,101310.06
2019-04-20T21:22:04.820Z,101314.21
2019-04-20T21:24:33.698Z,101315.10
2019-04-20T21:27:07.917Z,101312.08
2019-04-20T21:29:43.093Z,101311.37
2019-04-20T21:32:14.073Z,101316.16
2019-04-20T21:34:50.376Z,101312.70
2019-04-20T21:37:19.507Z,101305.46
2019-04-20T21:39:56.172Z,101315.13
2019-04-20T21:42:25.222Z,101312.14
2019-04-20T21:45:05.522Z,101313.48
2019-04-20T21:47:31.453Z,101315.17
2019-04-20T21:50:18.738Z,101321.44
2019-04-20T21:52:39.248Z,101308.47
2019-04-20T21:55:03.783Z,101314.61
2019-04-20T21:57:42.171Z,101307.93
2019-04-20T22:00:25.116Z,101324.41
2019-04-20T22:02:56.179Z,101312.80
2019-04-20T22:05:21.137Z,101312.80
2019-04-20T22:07:50.459Z,101315.98
2019-04-20T22:10:24.633Z,101313.57
2019-04-20T22:12:58.738Z,101321.59
2019-04-20T22:15:31.589Z,101315.11
2019-04-20T22:18:09.074Z,101302.66
2019-04-20T22:20:37.235Z,101313.72
2019-04-20T22:23:15.777Z,101316.79
2019-04-20T22:25:53.028Z,101317.63
2019-04-20T22:28:14.184Z,101310.86
2019-04-20T22:30:50.396Z,101304.27
2019-04-20T22:33:29.853Z,101304.27
2019-04-20T22:36:04.169Z,101312.11
2019-04-20T22:38:55.858Z,101316.72
2019-04-20T22:41:23.208Z,101318.27
2019-04-20T22:44:02.818Z,101318.27
2019-04-20T22:46:35.755Z,101318.13
2019-04-20T22:49:20.847Z,101302.70
2019-04-20T22:51:48.223Z,101295.73
2019-04-20T22:54:29.761Z,101308.28
2019-04-20T22:56:55.149Z,101310.08
2019-04-20T22:59:20.329Z,101309.88
2019-04-20T23:01:54.682Z,101306.59
2019-04-20T23:04:19.050Z,101307.77
2019-04-20T23:06:50.253Z,101303.96
2019-04-20T23:09:20.578Z,101306.22
2019-04-20T23:12:04.931Z,101306.22
2019-04-20T23:14:29.963Z,101300.95
2019-04-20T23:17:02.526Z,101305.13
2019-04-20T23:19:44.885Z,101301.91
2019-04-20T23:22:11.669Z,101298.13
2019-04-20T23:24:42.896Z,101294.34
2019-04-20T23:27:28.623Z,101294.34
2019-04-20T23:29:53.334Z,101291.06
2019-04-20T23:32:28.309Z,101281.52
2019-04-20T23:35:03.476Z,101281.52
2019-04-20T23:37:32.981Z,101280.38
2019-04-20T23:40:09.128Z,101288.55
2019-04-20T23:42:49.591Z,101288.55
2019-04-20T23:45:59.201Z,101276.48
2019-04-20T23:48:39.270Z,101278.13
2019-04-20T23:51:29.577Z,101274.94
2019-04-20T23:53:51.231Z,101275.43
2019-04-20T23:56:16.803Z,101275.14
2019-04-20T23:58:46.593Z,101275.14
